Historyczne dane pomiarowe

Dodano dane terminowe – wersja testowa.

Dane z okresu 1951-2019

Wersja bazy: 1.34 [2019-03-16, lista zmian], aktualizacja planowana na 2019-04-15

Dane meteo z obszaru Polski uzyskane na podstawie danych udostępnionych przez Instytut Meteorologii i Gospodarki Wodnej – Państwowy Instytut Badawczy.

 

Wybierz Datę:    

       

TemperaturaWilgotnośćWiatrCiśnienieOpadyŚniegCzas trwania zjawisk
 Stacja t tx tn tng RH VA  wxwx mslp ppp RRR   cm mm wxwxwxwxwxwxwx
1961-08-14 14.2 20.8 6.1--- 4.3 1.0---- 0.0------------
1961-08-13 12.5 17.8 9.7--- 5.3 1.3---- 0.0------------
1961-08-12 17.1 20.8 13.3--- 8.0 1.3---- 6.0------------
1961-08-11 19.0 26.3 16.1--- 6.0 1.3---- 12.0------------
1961-08-10 24.5 29.2 16.9--- 5.3 1.7---- 7.5------------
1961-08-09 22.0 28.4 16.7--- 5.0 1.3---- 19.6------------
1961-08-08 19.9 25.0 13.0--- 6.7 1.0---- 0.0------------
1961-08-07 18.8 25.0 17.1--- 8.0 2.0---- 5.5------------
1961-08-06 25.4 32.0 15.9--- 3.3 2.7---- 6.5------------
1961-08-05 19.5 24.3 14.7--- 4.0 2.0---- 0.0------------
1961-08-04 16.3 19.3 6.7--- 4.7 2.0---- 0.0------------
1961-08-03 13.8 20.4 10.1--- 3.7 1.0---- 0.0------------
1961-08-02 17.6 26.8 8.1--- 3.0 1.0---- 1.7------------
1961-08-01 15.8 21.8 9.9--- 4.0 2.7---- 0.0------------
1961-07-31 13.0 16.2 9.3--- 8.0 2.3---- 24.2------------
1961-07-30 13.0 16.8 9.4--- 7.7 3.0---- 1.8------------
1961-07-29 13.5 18.8 11.3--- 7.0 2.3---- 0.0------------
1961-07-28 14.6 19.0 12.5--- 8.0 2.3---- 31.1------------
1961-07-27 19.2 26.4 13.5--- 8.0 2.3---- 6.9------------
1961-07-26 18.7 24.8 8.6--- 4.3 2.0---- 0.0------------
1961-07-25 13.5 17.4 11.5--- 8.0 1.3---- 0.0------------
1961-07-24 14.0 17.2 8.3--- 8.0 2.3---- 0.0------------
1961-07-23 15.2 18.8 9.5--- 6.3 3.3---- 0.0------------
1961-07-22 15.6 19.8 12.9--- 7.3 3.3---- 0.2------------
1961-07-21 14.9 18.2 13.2--- 8.0 3.0---- 0.9------------
1961-07-20 15.3 21.2 7.5--- 8.0 0.7---- 1.5------------
1961-07-19 14.4 20.3 11.9--- 7.7 1.0---- 1.4------------
1961-07-18 14.8 19.3 11.3--- 8.0 2.0---- 1.1------------
1961-07-17 14.7 19.8 10.1--- 7.0 2.7---- 1.2------------
1961-07-16 16.7 23.3 13.5--- 7.0 2.0---- 0.2------------
1961-07-15 17.0 24.3 13.1--- 6.3 1.0---- 24.1------------
1961-07-14 15.5 18.8 12.7--- 7.3 2.0---- 0.3------------
1961-07-13 19.7 27.6 14.9--- 4.7 3.0---- 7.8------------
1961-07-12 22.2 28.8 13.5--- 3.3 1.0---- 0.0------------
1961-07-11 16.7 22.8 5.2--- 7.7 1.3---- 3.3------------
1961-07-10 12.9 18.3 9.6--- 5.0 1.7---- 0.3------------
1961-07-09 12.7 16.0 10.5--- 7.3 1.3---- 7.5------------
1961-07-08 15.3 22.3 3.4--- 2.7 0.7---- 0.0------------
1961-07-07 11.5 17.8 8.3--- 5.3 2.0---- 0.0------------
1961-07-06 13.6 16.3 8.1--- 8.0 5.7---- 1.2------------
1961-07-05 14.9 19.3 12.7--- 5.3 4.0---- 1.0------------
1961-07-04 19.9 29.0 15.7--- 3.0 2.3---- 0.0------------
1961-07-03 23.9 32.8 11.0--- 0.7 1.0---- 0.0------------
1961-07-02 22.5 31.8 9.1--- 0.0 0.3---- 0.0------------
1961-07-01 19.7 29.3 10.4--- 0.3 1.0---- 0.0------------
1961-06-30 19.0 27.2 8.0--- 0.0 1.0---- 0.0------------
1961-06-29 16.3 22.3 8.4--- 2.3 2.7---- 0.0------------
1961-06-28 13.1 19.8 10.5--- 6.3 3.0---- 0.0------------
1961-06-27 22.9 31.0 15.9--- 4.0 1.3---- 8.0------------
1961-06-26 22.2 29.4 13.1--- 3.7 0.7---- 0.0------------
1961-06-25 20.0 30.0 14.7--- 0.3 1.3---- 0.0------------
1961-06-24 19.4 25.3 10.4--- 2.3 2.0---- 0.0------------
1961-06-23 16.7 23.0 13.9--- 4.3 2.7---- 0.0------------
1961-06-22 20.5 27.3 5.7--- 3.7 2.0---- 3.8------------
1961-06-21 16.6 24.3 4.7--- 2.7 0.7---- 0.0------------
1961-06-20 12.0 20.3 5.5--- 1.7 1.3---- 0.0------------
1961-06-19 15.7 22.8 10.9--- 5.3 0.7---- 2.2------------
1961-06-18 21.4 27.0 15.3--- 1.3 1.0---- 0.0------------
1961-06-17 18.2 23.4 5.6--- 0.7 1.0---- 0.0------------
1961-06-16 11.9 19.1 5.4--- 5.7 1.0---- 0.0------------
487.8 ms

 

Źródłem pochodzenia danych jest Instytut Meteorologii i Gospodarki Wodnej – Państwowy Instytut Badawczy. Dane Instytutu Meteorologii i Gospodarki Wodnej – Państwowego Instytutu Badawczego zostały przetworzone.

Dane źródłowe można odnaleźć na stronie https://dane.imgw.pl